sensor_id;sensor_type;location;lat;lon;timestamp;pressure;altitude;pressure_sealevel;temperature;humidity
43741;BME280;29352;48.708;9.290;2024-01-10T00:02:19;98631.38;;;-7.83;57.52
43741;BME280;29352;48.708;9.290;2024-01-10T00:04:45;98631.09;;;-7.94;58.17
43741;BME280;29352;48.708;9.290;2024-01-10T00:07:10;98629.03;;;-7.56;57.73
43741;BME280;29352;48.708;9.290;2024-01-10T00:09:36;98632.28;;;-7.68;57.94
43741;BME280;29352;48.708;9.290;2024-01-10T00:12:01;98625.59;;;-7.88;57.97
43741;BME280;29352;48.708;9.290;2024-01-10T00:14:27;98622.09;;;-7.87;57.70
43741;BME280;29352;48.708;9.290;2024-01-10T00:16:52;98626.09;;;-8.48;58.67
43741;BME280;29352;48.708;9.290;2024-01-10T00:19:19;98635.91;;;-8.20;58.87
43741;BME280;29352;48.708;9.290;2024-01-10T00:21:45;98631.75;;;-8.06;57.85
43741;BME280;29352;48.708;9.290;2024-01-10T00:24:10;98629.44;;;-7.79;57.65
43741;BME280;29352;48.708;9.290;2024-01-10T00:26:37;98624.78;;;-7.89;57.78
43741;BME280;29352;48.708;9.290;2024-01-10T00:29:03;98626.75;;;-8.10;57.81
43741;BME280;29352;48.708;9.290;2024-01-10T00:31:28;98630.91;;;-9.27;59.65
43741;BME280;29352;48.708;9.290;2024-01-10T00:33:54;98629.88;;;-8.53;58.54
43741;BME280;29352;48.708;9.290;2024-01-10T00:36:19;98629.91;;;-8.04;57.11
43741;BME280;29352;48.708;9.290;2024-01-10T00:38:45;98630.75;;;-8.04;57.91
43741;BME280;29352;48.708;9.290;2024-01-10T00:41:11;98620.50;;;-7.90;57.35
43741;BME280;29352;48.708;9.290;2024-01-10T00:43:37;98621.09;;;-7.53;56.62
43741;BME280;29352;48.708;9.290;2024-01-10T00:46:03;98621.41;;;-7.91;56.72
43741;BME280;29352;48.708;9.290;2024-01-10T00:48:28;98615.25;;;-7.88;57.24
43741;BME280;29352;48.708;9.290;2024-01-10T00:50:54;98614.91;;;-7.66;57.48
43741;BME280;29352;48.708;9.290;2024-01-10T00:53:19;98616.84;;;-7.70;57.97
43741;BME280;29352;48.708;9.290;2024-01-10T00:55:45;98606.19;;;-7.65;57.91
43741;BME280;29352;48.708;9.290;2024-01-10T00:58:10;98611.06;;;-7.75;58.55
43741;BME280;29352;48.708;9.290;2024-01-10T01:00:36;98614.53;;;-7.12;57.18
43741;BME280;29352;48.708;9.290;2024-01-10T01:03:02;98618.75;;;-7.42;57.38
43741;BME280;29352;48.708;9.290;2024-01-10T01:05:29;98619.06;;;-7.95;58.52
43741;BME280;29352;48.708;9.290;2024-01-10T01:07:55;98619.25;;;-7.82;58.58
43741;BME280;29352;48.708;9.290;2024-01-10T01:10:20;98622.59;;;-7.65;58.15
43741;BME280;29352;48.708;9.290;2024-01-10T01:12:45;98620.09;;;-7.66;57.85
43741;BME280;29352;48.708;9.290;2024-01-10T01:15:12;98620.25;;;-7.53;57.55
43741;BME280;29352;48.708;9.290;2024-01-10T01:17:38;98623.75;;;-7.23;57.38
43741;BME280;29352;48.708;9.290;2024-01-10T01:20:05;98623.44;;;-7.48;58.10
43741;BME280;29352;48.708;9.290;2024-01-10T01:22:31;98626.13;;;-7.50;58.00
43741;BME280;29352;48.708;9.290;2024-01-10T01:24:57;98630.63;;;-7.53;57.83
43741;BME280;29352;48.708;9.290;2024-01-10T01:27:23;98624.16;;;-7.30;57.65
43741;BME280;29352;48.708;9.290;2024-01-10T01:29:49;98631.50;;;-7.07;57.38
43741;BME280;29352;48.708;9.290;2024-01-10T01:32:15;98625.19;;;-7.33;55.52
43741;BME280;29352;48.708;9.290;2024-01-10T01:34:41;98624.38;;;-7.03;53.54
43741;BME280;29352;48.708;9.290;2024-01-10T01:37:06;98622.56;;;-7.17;54.76
43741;BME280;29352;48.708;9.290;2024-01-10T01:39:32;98624.13;;;-7.60;53.96
43741;BME280;29352;48.708;9.290;2024-01-10T01:41:57;98623.44;;;-7.48;53.95
43741;BME280;29352;48.708;9.290;2024-01-10T01:44:23;98620.91;;;-7.18;53.06
43741;BME280;29352;48.708;9.290;2024-01-10T01:46:49;98622.78;;;-7.06;52.73
43741;BME280;29352;48.708;9.290;2024-01-10T01:49:15;98623.69;;;-6.91;52.33
43741;BME280;29352;48.708;9.290;2024-01-10T01:51:41;98620.09;;;-7.50;57.80
43741;BME280;29352;48.708;9.290;2024-01-10T01:54:08;98625.69;;;-7.42;56.73
43741;BME280;29352;48.708;9.290;2024-01-10T01:56:36;98618.06;;;-7.29;56.57
43741;BME280;29352;48.708;9.290;2024-01-10T01:59:04;98620.66;;;-7.29;57.22
43741;BME280;29352;48.708;9.290;2024-01-10T02:01:30;98617.41;;;-7.33;55.87
43741;BME280;29352;48.708;9.290;2024-01-10T02:03:56;98629.09;;;-7.89;57.95
43741;BME280;29352;48.708;9.290;2024-01-10T02:06:22;98625.34;;;-7.52;57.71
43741;BME280;29352;48.708;9.290;2024-01-10T02:08:48;98621.94;;;-7.52;58.00
43741;BME280;29352;48.708;9.290;2024-01-10T02:11:15;98622.69;;;-7.50;58.00
43741;BME280;29352;48.708;9.290;2024-01-10T02:13:41;98619.59;;;-7.57;58.00
43741;BME280;29352;48.708;9.290;2024-01-10T02:16:07;98616.50;;;-7.64;58.37
43741;BME280;29352;48.708;9.290;2024-01-10T02:18:34;98622.59;;;-7.65;58.35
43741;BME280;29352;48.708;9.290;2024-01-10T02:21:00;98608.47;;;-7.43;57.20
43741;BME280;29352;48.708;9.290;2024-01-10T02:23:27;98606.22;;;-7.81;58.18
43741;BME280;29352;48.708;9.290;2024-01-10T02:25:54;98611.81;;;-7.73;58.11
43741;BME280;29352;48.708;9.290;2024-01-10T02:28:21;98605.19;;;-7.63;56.80
43741;BME280;29352;48.708;9.290;2024-01-10T02:30:50;98602.69;;;-7.32;56.11
43741;BME280;29352;48.708;9.290;2024-01-10T02:33:16;98597.56;;;-7.34;56.44
43741;BME280;29352;48.708;9.290;2024-01-10T02:35:41;98599.00;;;-7.44;56.86
43741;BME280;29352;48.708;9.290;2024-01-10T02:38:08;98602.84;;;-7.83;56.34
43741;BME280;29352;48.708;9.290;2024-01-10T02:40:33;98602.34;;;-7.58;57.53
43741;BME280;29352;48.708;9.290;2024-01-10T02:42:59;98608.03;;;-7.83;58.53
43741;BME280;29352;48.708;9.290;2024-01-10T02:45:24;98597.84;;;-7.70;58.91
43741;BME280;29352;48.708;9.290;2024-01-10T02:47:51;98604.13;;;-7.74;58.62
43741;BME280;29352;48.708;9.290;2024-01-10T02:50:16;98600.88;;;-7.78;57.35
43741;BME280;29352;48.708;9.290;2024-01-10T02:52:43;98599.41;;;-7.52;57.87
43741;BME280;29352;48.708;9.290;2024-01-10T02:55:08;98595.34;;;-7.56;58.05
43741;BME280;29352;48.708;9.290;2024-01-10T02:57:34;98596.50;;;-7.62;58.21
43741;BME280;29352;48.708;9.290;2024-01-10T03:00:00;98594.84;;;-7.63;58.90
43741;BME280;29352;48.708;9.290;2024-01-10T03:02:25;98599.69;;;-7.56;58.14
43741;BME280;29352;48.708;9.290;2024-01-10T03:04:51;98590.66;;;-7.49;57.58
43741;BME280;29352;48.708;9.290;2024-01-10T03:07:16;98588.63;;;-7.44;57.50
43741;BME280;29352;48.708;9.290;2024-01-10T03:09:42;98587.00;;;-7.31;57.39
43741;BME280;29352;48.708;9.290;2024-01-10T03:12:11;98588.22;;;-7.52;57.73
43741;BME280;29352;48.708;9.290;2024-01-10T03:14:37;98587.00;;;-7.31;57.72
43741;BME280;29352;48.708;9.290;2024-01-10T03:17:03;98584.19;;;-7.42;57.91
43741;BME280;29352;48.708;9.290;2024-01-10T03:19:30;98585.13;;;-7.43;57.49
43741;BME280;29352;48.708;9.290;2024-01-10T03:21:55;98577.72;;;-7.19;56.01
43741;BME280;29352;48.708;9.290;2024-01-10T03:24:21;98569.94;;;-6.75;56.25
43741;BME280;29352;48.708;9.290;2024-01-10T03:26:50;98573.19;;;-7.16;55.80
43741;BME280;29352;48.708;9.290;2024-01-10T03:29:15;98575.09;;;-6.89;56.03
43741;BME280;29352;48.708;9.290;2024-01-10T03:31:42;98569.84;;;-7.18;56.85
43741;BME280;29352;48.708;9.290;2024-01-10T03:34:07;98565.72;;;-7.52;56.87
43741;BME280;29352;48.708;9.290;2024-01-10T03:36:32;98573.16;;;-7.46;56.47
43741;BME280;29352;48.708;9.290;2024-01-10T03:42:39;98573.78;;;-7.88;58.23
43741;BME280;29352;48.708;9.290;2024-01-10T03:45:05;98567.41;;;-7.98;59.51
43741;BME280;29352;48.708;9.290;2024-01-10T03:47:32;98568.25;;;-7.66;57.02
43741;BME280;29352;48.708;9.290;2024-01-10T03:49:57;98574.34;;;-7.83;58.67
43741;BME280;29352;48.708;9.290;2024-01-10T03:52:23;98567.97;;;-7.30;57.72
43741;BME280;29352;48.708;9.290;2024-01-10T03:54:49;98576.09;;;-7.52;58.41
43741;BME280;29352;48.708;9.290;2024-01-10T03:57:14;98571.66;;;-7.20;57.71
43741;BME280;29352;48.708;9.290;2024-01-10T03:59:40;98566.78;;;-7.10;56.46
43741;BME280;29352;48.708;9.290;2024-01-10T04:02:06;98569.19;;;-7.21;55.93
43741;BME280;29352;48.708;9.290;2024-01-10T04:04:31;98568.03;;;-7.31;56.57
43741;BME280;29352;48.708;9.290;2024-01-10T04:06:56;98575.81;;;-7.01;55.65
43741;BME280;29352;48.708;9.290;2024-01-10T04:09:22;98578.25;;;-6.98;56.60
43741;BME280;29352;48.708;9.290;2024-01-10T04:11:47;98578.06;;;-7.25;57.00
43741;BME280;29352;48.708;9.290;2024-01-10T04:14:13;98577.78;;;-7.82;58.40
43741;BME280;29352;48.708;9.290;2024-01-10T04:16:38;98583.25;;;-8.20;60.33
43741;BME280;29352;48.708;9.290;2024-01-10T04:19:04;98578.94;;;-8.70;61.53
43741;BME280;29352;48.708;9.290;2024-01-10T04:21:29;98580.03;;;-7.60;59.92
43741;BME280;29352;48.708;9.290;2024-01-10T04:23:55;98583.53;;;-7.30;59.28
43741;BME280;29352;48.708;9.290;2024-01-10T04:26:21;98577.09;;;-7.54;59.01
43741;BME280;29352;48.708;9.290;2024-01-10T04:28:47;98579.34;;;-7.48;58.86
43741;BME280;29352;48.708;9.290;2024-01-10T04:31:12;98581.16;;;-7.19;57.48
43741;BME280;29352;48.708;9.290;2024-01-10T04:33:38;98583.94;;;-7.38;57.30
43741;BME280;29352;48.708;9.290;2024-01-10T04:36:05;98583.94;;;-8.01;59.13
43741;BME280;29352;48.708;9.290;2024-01-10T04:38:31;98575.00;;;-7.48;58.83
43741;BME280;29352;48.708;9.290;2024-01-10T04:40:57;98570.56;;;-7.62;57.86
43741;BME280;29352;48.708;9.290;2024-01-10T04:43:23;98570.41;;;-7.58;57.82
43741;BME280;29352;48.708;9.290;2024-01-10T04:45:48;98574.75;;;-7.59;57.35
43741;BME280;29352;48.708;9.290;2024-01-10T04:48:14;98567.19;;;-8.27;58.11
43741;BME280;29352;48.708;9.290;2024-01-10T04:50:39;98565.56;;;-7.96;57.08
43741;BME280;29352;48.708;9.290;2024-01-10T04:53:05;98573.75;;;-8.04;58.36
43741;BME280;29352;48.708;9.290;2024-01-10T04:55:31;98564.22;;;-8.03;58.96
43741;BME280;29352;48.708;9.290;2024-01-10T04:57:58;98567.75;;;-7.73;58.79
43741;BME280;29352;48.708;9.290;2024-01-10T05:00:25;98575.09;;;-7.49;55.79
43741;BME280;29352;48.708;9.290;2024-01-10T05:02:50;98576.69;;;-7.78;57.13
43741;BME280;29352;48.708;9.290;2024-01-10T05:05:15;98578.41;;;-8.26;57.46
43741;BME280;29352;48.708;9.290;2024-01-10T05:07:43;98573.75;;;-7.56;56.68
43741;BME280;29352;48.708;9.290;2024-01-10T05:10:09;98572.50;;;-7.49;56.87
43741;BME280;29352;48.708;9.290;2024-01-10T05:12:34;98576.03;;;-7.20;56.05
43741;BME280;29352;48.708;9.290;2024-01-10T05:15:00;98577.09;;;-7.86;55.65
43741;BME280;29352;48.708;9.290;2024-01-10T05:17:26;98580.38;;;-7.21;54.11
43741;BME280;29352;48.708;9.290;2024-01-10T05:19:53;98578.31;;;-7.00;53.86
43741;BME280;29352;48.708;9.290;2024-01-10T05:22:20;98579.19;;;-7.45;53.48
43741;BME280;29352;48.708;9.290;2024-01-10T05:24:47;98583.72;;;-6.88;54.00
43741;BME280;29352;48.708;9.290;2024-01-10T05:27:13;98581.47;;;-7.09;54.92
43741;BME280;29352;48.708;9.290;2024-01-10T05:29:39;98579.66;;;-7.23;55.29
43741;BME280;29352;48.708;9.290;2024-01-10T05:32:04;98573.47;;;-7.06;53.72
43741;BME280;29352;48.708;9.290;2024-01-10T05:34:31;98582.94;;;-7.35;54.63
43741;BME280;29352;48.708;9.290;2024-01-10T05:36:56;98579.94;;;-6.83;53.04
43741;BME280;29352;48.708;9.290;2024-01-10T05:39:22;98578.38;;;-7.16;53.28
43741;BME280;29352;48.708;9.290;2024-01-10T05:41:48;98586.97;;;-6.85;52.83
43741;BME280;29352;48.708;9.290;2024-01-10T05:44:13;98582.34;;;-6.94;53.75
43741;BME280;29352;48.708;9.290;2024-01-10T05:46:40;98585.13;;;-7.13;53.96
43741;BME280;29352;48.708;9.290;2024-01-10T05:49:08;98580.56;;;-7.24;55.09
43741;BME280;29352;48.708;9.290;2024-01-10T05:51:34;98576.81;;;-7.04;53.71
43741;BME280;29352;48.708;9.290;2024-01-10T05:53:59;98588.28;;;-7.38;55.34
43741;BME280;29352;48.708;9.290;2024-01-10T05:56:25;98592.81;;;-7.42;56.03
43741;BME280;29352;48.708;9.290;2024-01-10T05:58:52;98580.09;;;-7.62;55.96
43741;BME280;29352;48.708;9.290;2024-01-10T06:01:17;98578.66;;;-7.36;55.74
43741;BME280;29352;48.708;9.290;2024-01-10T06:03:43;98572.41;;;-7.02;55.04
43741;BME280;29352;48.708;9.290;2024-01-10T06:06:09;98582.34;;;-6.94;54.78
43741;BME280;29352;48.708;9.290;2024-01-10T06:08:34;98583.28;;;-6.81;55.07
43741;BME280;29352;48.708;9.290;2024-01-10T06:11:03;98581.72;;;-6.69;54.55
43741;BME280;29352;48.708;9.290;2024-01-10T06:13:31;98580.28;;;-6.89;54.32
43741;BME280;29352;48.708;9.290;2024-01-10T06:15:56;98582.69;;;-6.42;53.40
43741;BME280;29352;48.708;9.290;2024-01-10T06:18:22;98575.16;;;-7.05;53.79
43741;BME280;29352;48.708;9.290;2024-01-10T06:20:48;98581.72;;;-6.83;54.60
43741;BME280;29352;48.708;9.290;2024-01-10T06:23:13;98584.56;;;-7.18;54.88
43741;BME280;29352;48.708;9.290;2024-01-10T06:25:39;98597.28;;;-7.14;54.88
43741;BME280;29352;48.708;9.290;2024-01-10T06:28:05;98597.91;;;-8.03;57.94
43741;BME280;29352;48.708;9.290;2024-01-10T06:30:32;98595.84;;;-7.49;56.40
43741;BME280;29352;48.708;9.290;2024-01-10T06:32:58;98605.06;;;-8.24;57.34
43741;BME280;29352;48.708;9.290;2024-01-10T06:35:24;98603.28;;;-7.43;57.10
43741;BME280;29352;48.708;9.290;2024-01-10T06:37:51;98601.94;;;-7.82;55.39
43741;BME280;29352;48.708;9.290;2024-01-10T06:40:18;98586.13;;;-7.62;55.62
43741;BME280;29352;48.708;9.290;2024-01-10T06:42:43;98595.34;;;-7.40;56.22
43741;BME280;29352;48.708;9.290;2024-01-10T06:45:09;98597.22;;;-7.28;55.66
43741;BME280;29352;48.708;9.290;2024-01-10T06:47:37;98598.44;;;-7.49;55.48
43741;BME280;29352;48.708;9.290;2024-01-10T06:50:03;98596.75;;;-7.50;56.30
43741;BME280;29352;48.708;9.290;2024-01-10T06:52:31;98594.47;;;-7.25;56.72
43741;BME280;29352;48.708;9.290;2024-01-10T06:54:57;98589.84;;;-7.20;55.92
43741;BME280;29352;48.708;9.290;2024-01-10T06:57:22;98589.28;;;-7.41;55.60
43741;BME280;29352;48.708;9.290;2024-01-10T06:59:48;98598.28;;;-7.16;55.38
43741;BME280;29352;48.708;9.290;2024-01-10T07:02:14;98597.56;;;-6.88;54.81
43741;BME280;29352;48.708;9.290;2024-01-10T07:04:40;98594.84;;;-6.86;55.10
43741;BME280;29352;48.708;9.290;2024-01-10T07:07:06;98596.59;;;-7.01;55.23
43741;BME280;29352;48.708;9.290;2024-01-10T07:09:33;98603.44;;;-7.00;55.90
43741;BME280;29352;48.708;9.290;2024-01-10T07:11:59;98607.00;;;-7.17;55.96
43741;BME280;29352;48.708;9.290;2024-01-10T07:14:24;98609.03;;;-7.38;55.53
43741;BME280;29352;48.708;9.290;2024-01-10T07:16:51;98608.56;;;-7.60;56.27
43741;BME280;29352;48.708;9.290;2024-01-10T07:19:17;98616.16;;;-7.57;56.97
43741;BME280;29352;48.708;9.290;2024-01-10T07:21:43;98617.91;;;-7.58;56.66
43741;BME280;29352;48.708;9.290;2024-01-10T07:24:09;98621.59;;;-7.78;56.66
43741;BME280;29352;48.708;9.290;2024-01-10T07:26:36;98620.34;;;-7.71;56.47
43741;BME280;29352;48.708;9.290;2024-01-10T07:29:03;98628.19;;;-7.72;57.01
43741;BME280;29352;48.708;9.290;2024-01-10T07:31:29;98627.88;;;-7.66;56.32
43741;BME280;29352;48.708;9.290;2024-01-10T07:33:56;98626.53;;;-7.57;56.45
43741;BME280;29352;48.708;9.290;2024-01-10T07:36:24;98630.47;;;-7.66;56.16
43741;BME280;29352;48.708;9.290;2024-01-10T07:38:52;98632.13;;;-7.49;56.30
43741;BME280;29352;48.708;9.290;2024-01-10T07:41:18;98617.91;;;-7.42;56.66
43741;BME280;29352;48.708;9.290;2024-01-10T07:43:46;98627.13;;;-7.06;56.77
43741;BME280;29352;48.708;9.290;2024-01-10T07:46:11;98628.41;;;-7.14;56.71
43741;BME280;29352;48.708;9.290;2024-01-10T07:48:37;98628.84;;;-7.37;57.54
43741;BME280;29352;48.708;9.290;2024-01-10T07:51:03;98636.31;;;-7.63;58.05
43741;BME280;29352;48.708;9.290;2024-01-10T07:53:29;98645.94;;;-7.49;57.66
43741;BME280;29352;48.708;9.290;2024-01-10T07:55:56;98645.50;;;-7.25;56.35
43741;BME280;29352;48.708;9.290;2024-01-10T07:58:22;98636.19;;;-7.14;56.51
43741;BME280;29352;48.708;9.290;2024-01-10T08:00:47;98654.78;;;-7.05;56.84
43741;BME280;29352;48.708;9.290;2024-01-10T08:03:13;98658.50;;;-6.35;55.53
43741;BME280;29352;48.708;9.290;2024-01-10T08:05:39;98662.13;;;-6.23;54.93
43741;BME280;29352;48.708;9.290;2024-01-10T08:08:05;98659.19;;;-6.47;56.26
43741;BME280;29352;48.708;9.290;2024-01-10T08:10:30;98667.03;;;-6.77;56.69
43741;BME280;29352;48.708;9.290;2024-01-10T08:12:58;98663.47;;;-6.60;56.76
43741;BME280;29352;48.708;9.290;2024-01-10T08:15:25;98665.84;;;-6.27;56.44
43741;BME280;29352;48.708;9.290;2024-01-10T08:17:50;98660.84;;;-5.73;55.71
43741;BME280;29352;48.708;9.290;2024-01-10T08:20:16;98655.59;;;-4.90;55.19
43741;BME280;29352;48.708;9.290;2024-01-10T08:22:46;98658.25;;;-3.87;53.65
43741;BME280;29352;48.708;9.290;2024-01-10T08:25:12;98663.56;;;-2.67;50.40
43741;BME280;29352;48.708;9.290;2024-01-10T08:27:41;98657.97;;;-3.21;50.33
43741;BME280;29352;48.708;9.290;2024-01-10T08:30:07;98661.03;;;-2.79;49.54
43741;BME280;29352;48.708;9.290;2024-01-10T08:32:35;98672.00;;;-2.63;48.56
43741;BME280;29352;48.708;9.290;2024-01-10T08:35:05;98668.41;;;-2.73;51.13
43741;BME280;29352;48.708;9.290;2024-01-10T08:37:32;98659.44;;;-1.67;47.63
43741;BME280;29352;48.708;9.290;2024-01-10T08:39:58;98654.38;;;-1.02;46.52
43741;BME280;29352;48.708;9.290;2024-01-10T08:42:25;98670.75;;;-2.81;47.25
43741;BME280;29352;48.708;9.290;2024-01-10T08:44:50;98662.66;;;-1.63;46.11
43741;BME280;29352;48.708;9.290;2024-01-10T08:47:17;98676.34;;;-2.51;47.77
43741;BME280;29352;48.708;9.290;2024-01-10T08:49:43;98678.72;;;-1.45;46.06
43741;BME280;29352;48.708;9.290;2024-01-10T08:52:08;98671.66;;;-3.18;48.88
43741;BME280;29352;48.708;9.290;2024-01-10T08:54:35;98677.16;;;-2.50;47.14
43741;BME280;29352;48.708;9.290;2024-01-10T08:57:02;98675.59;;;-3.12;48.04
43741;BME280;29352;48.708;9.290;2024-01-10T08:59:29;98681.06;;;-3.77;49.32
43741;BME280;29352;48.708;9.290;2024-01-10T09:01:55;98693.38;;;-5.25;51.40
43741;BME280;29352;48.708;9.290;2024-01-10T09:04:21;98685.25;;;-3.75;49.18
43741;BME280;29352;48.708;9.290;2024-01-10T09:06:46;98690.34;;;-5.45;52.20
43741;BME280;29352;48.708;9.290;2024-01-10T09:09:12;98694.38;;;-4.86;50.23
43741;BME280;29352;48.708;9.290;2024-01-10T09:11:46;98696.63;;;-3.89;50.83
43741;BME280;29352;48.708;9.290;2024-01-10T09:14:13;98692.34;;;-3.77;49.92
43741;BME280;29352;48.708;9.290;2024-01-10T09:16:39;98688.63;;;-4.51;50.34
43741;BME280;29352;48.708;9.290;2024-01-10T09:19:05;98688.38;;;-4.73;50.73
43741;BME280;29352;48.708;9.290;2024-01-10T09:21:31;98688.84;;;-4.41;50.36
43741;BME280;29352;48.708;9.290;2024-01-10T09:23:56;98693.78;;;-4.11;50.33
43741;BME280;29352;48.708;9.290;2024-01-10T09:26:23;98693.34;;;-4.83;50.53
43741;BME280;29352;48.708;9.290;2024-01-10T09:28:49;98703.94;;;-5.13;50.93
43741;BME280;29352;48.708;9.290;2024-01-10T09:31:15;98698.38;;;-4.67;50.88
43741;BME280;29352;48.708;9.290;2024-01-10T09:33:41;98705.47;;;-4.69;49.84
43741;BME280;29352;48.708;9.290;2024-01-10T09:36:06;98703.38;;;-4.24;49.91
43741;BME280;29352;48.708;9.290;2024-01-10T09:38:36;98702.13;;;-3.18;47.65
43741;BME280;29352;48.708;9.290;2024-01-10T09:41:04;98699.06;;;-3.36;49.03
43741;BME280;29352;48.708;9.290;2024-01-10T09:43:31;98697.63;;;-2.79;48.15
43741;BME280;29352;48.708;9.290;2024-01-10T09:46:00;98700.56;;;-3.58;49.16
43741;BME280;29352;48.708;9.290;2024-01-10T09:48:28;98703.03;;;-3.43;49.22
43741;BME280;29352;48.708;9.290;2024-01-10T09:50:55;98703.91;;;-2.47;47.19
43741;BME280;29352;48.708;9.290;2024-01-10T09:53:22;98707.72;;;-2.99;47.96
43741;BME280;29352;48.708;9.290;2024-01-10T09:55:50;98711.56;;;-3.28;48.46
43741;BME280;29352;48.708;9.290;2024-01-10T09:58:17;98707.69;;;-2.86;48.58
43741;BME280;29352;48.708;9.290;2024-01-10T10:00:44;98706.19;;;-2.07;47.82
43741;BME280;29352;48.708;9.290;2024-01-10T10:03:10;98710.38;;;-1.71;47.33
43741;BME280;29352;48.708;9.290;2024-01-10T10:05:39;98704.34;;;-1.60;46.47
43741;BME280;29352;48.708;9.290;2024-01-10T10:08:11;98694.53;;;-2.03;47.62
43741;BME280;29352;48.708;9.290;2024-01-10T10:10:38;98694.31;;;-1.32;47.18
43741;BME280;29352;48.708;9.290;2024-01-10T10:13:09;98688.81;;;-1.97;48.09
43741;BME280;29352;48.708;9.290;2024-01-10T10:15:38;98699.69;;;-1.34;46.24
43741;BME280;29352;48.708;9.290;2024-01-10T10:18:04;98690.38;;;-1.15;46.65
43741;BME280;29352;48.708;9.290;2024-01-10T10:20:31;98697.16;;;-2.03;48.18
43741;BME280;29352;48.708;9.290;2024-01-10T10:23:01;98675.91;;;-0.99;45.62
43741;BME280;29352;48.708;9.290;2024-01-10T10:25:46;98676.00;;;-0.57;45.84
43741;BME280;29352;48.708;9.290;2024-01-10T10:28:12;98680.03;;;-2.07;45.98
43741;BME280;29352;48.708;9.290;2024-01-10T10:30:38;98687.94;;;-0.96;45.98
43741;BME280;29352;48.708;9.290;2024-01-10T10:33:04;98674.47;;;-0.17;45.24
43741;BME280;29352;48.708;9.290;2024-01-10T10:35:33;98680.00;;;-1.17;46.18
43741;BME280;29352;48.708;9.290;2024-01-10T10:37:59;98680.19;;;-0.98;45.18
43741;BME280;29352;48.708;9.290;2024-01-10T10:40:25;98674.63;;;-0.19;44.29
43741;BME280;29352;48.708;9.290;2024-01-10T10:42:55;98681.44;;;-0.07;43.98
43741;BME280;29352;48.708;9.290;2024-01-10T10:45:23;98671.66;;;-0.47;44.05
43741;BME280;29352;48.708;9.290;2024-01-10T10:48:00;98685.84;;;-2.50;48.02
43741;BME280;29352;48.708;9.290;2024-01-10T10:50:30;98678.44;;;-0.76;44.22
43741;BME280;29352;48.708;9.290;2024-01-10T10:53:00;98687.81;;;-1.60;45.39
43741;BME280;29352;48.708;9.290;2024-01-10T10:55:28;98681.00;;;-1.52;47.36
43741;BME280;29352;48.708;9.290;2024-01-10T10:57:57;98670.56;;;-0.65;46.53
43741;BME280;29352;48.708;9.290;2024-01-10T11:00:27;98673.19;;;-0.65;45.27
43741;BME280;29352;48.708;9.290;2024-01-10T11:02:55;98684.81;;;-1.33;45.79
43741;BME280;29352;48.708;9.290;2024-01-10T11:05:21;98673.53;;;-0.69;44.94
43741;BME280;29352;48.708;9.290;2024-01-10T11:07:48;98679.75;;;-1.14;45.25
43741;BME280;29352;48.708;9.290;2024-01-10T11:10:23;98670.22;;;-0.72;45.45
43741;BME280;29352;48.708;9.290;2024-01-10T11:18:51;98673.06;;;-2.30;47.72
43741;BME280;29352;48.708;9.290;2024-01-10T11:24:55;98677.53;;;-1.75;47.82
43741;BME280;29352;48.708;9.290;2024-01-10T11:27:21;98671.78;;;-0.48;46.39
43741;BME280;29352;48.708;9.290;2024-01-10T11:29:46;98670.75;;;0.06;45.62
43741;BME280;29352;48.708;9.290;2024-01-10T11:32:17;98675.38;;;-0.49;45.00
43741;BME280;29352;48.708;9.290;2024-01-10T11:35:19;98671.66;;;-1.11;45.06
43741;BME280;29352;48.708;9.290;2024-01-10T11:37:47;98667.22;;;-0.67;47.58
43741;BME280;29352;48.708;9.290;2024-01-10T11:40:15;98666.75;;;-0.40;45.68
43741;BME280;29352;48.708;9.290;2024-01-10T11:42:45;98670.03;;;-1.34;46.59
43741;BME280;29352;48.708;9.290;2024-01-10T11:47:59;98655.59;;;-0.32;45.52
43741;BME280;29352;48.708;9.290;2024-01-10T11:50:27;98650.59;;;-0.14;44.87
43741;BME280;29352;48.708;9.290;2024-01-10T11:52:53;98651.53;;;0.06;45.32
43741;BME280;29352;48.708;9.290;2024-01-10T11:55:50;98655.03;;;-1.32;47.54
43741;BME280;29352;48.708;9.290;2024-01-10T11:58:23;98655.34;;;-2.73;48.26
43741;BME280;29352;48.708;9.290;2024-01-10T12:00:49;98662.31;;;-1.70;46.26
43741;BME280;29352;48.708;9.290;2024-01-10T12:03:17;98648.75;;;-0.44;47.35
43741;BME280;29352;48.708;9.290;2024-01-10T12:05:44;98652.69;;;0.13;46.36
43741;BME280;29352;48.708;9.290;2024-01-10T12:08:11;98652.06;;;0.61;45.71
43741;BME280;29352;48.708;9.290;2024-01-10T12:10:38;98645.56;;;0.65;45.78
43741;BME280;29352;48.708;9.290;2024-01-10T12:13:04;98659.44;;;0.36;46.43
43741;BME280;29352;48.708;9.290;2024-01-10T12:15:30;98653.06;;;0.79;44.85
43741;BME280;29352;48.708;9.290;2024-01-10T12:17:56;98665.53;;;-1.88;47.20
43741;BME280;29352;48.708;9.290;2024-01-10T12:20:21;98651.59;;;-0.36;47.33
43741;BME280;29352;48.708;9.290;2024-01-10T12:22:47;98660.66;;;-2.86;49.82
43741;BME280;29352;48.708;9.290;2024-01-10T12:25:13;98647.78;;;-0.85;47.94
43741;BME280;29352;48.708;9.290;2024-01-10T12:27:39;98645.13;;;-0.32;47.66
43741;BME280;29352;48.708;9.290;2024-01-10T12:30:06;98647.31;;;-0.07;46.56
43741;BME280;29352;48.708;9.290;2024-01-10T12:32:32;98646.19;;;0.17;46.52
43741;BME280;29352;48.708;9.290;2024-01-10T12:35:03;98641.78;;;0.17;46.26
43741;BME280;29352;48.708;9.290;2024-01-10T12:37:30;98639.72;;;-0.52;47.21
43741;BME280;29352;48.708;9.290;2024-01-10T12:39:57;98638.84;;;0.11;47.27
43741;BME280;29352;48.708;9.290;2024-01-10T12:42:23;98638.19;;;-0.75;45.79
43741;BME280;29352;48.708;9.290;2024-01-10T12:44:53;98636.09;;;0.12;45.42
43741;BME280;29352;48.708;9.290;2024-01-10T12:47:21;98625.13;;;-0.44;46.47
43741;BME280;29352;48.708;9.290;2024-01-10T12:49:49;98632.00;;;-1.18;47.24
43741;BME280;29352;48.708;9.290;2024-01-10T12:52:15;98636.16;;;-0.51;46.85
43741;BME280;29352;48.708;9.290;2024-01-10T12:54:41;98634.38;;;-0.29;47.31
43741;BME280;29352;48.708;9.290;2024-01-10T12:57:07;98629.81;;;-0.69;47.50
43741;BME280;29352;48.708;9.290;2024-01-10T12:59:34;98630.47;;;-0.56;47.10
43741;BME280;29352;48.708;9.290;2024-01-10T13:02:00;98632.66;;;-0.40;46.64
43741;BME280;29352;48.708;9.290;2024-01-10T13:04:25;98630.56;;;-0.15;47.12
43741;BME280;29352;48.708;9.290;2024-01-10T13:06:51;98632.44;;;-0.27;46.55
43741;BME280;29352;48.708;9.290;2024-01-10T13:09:17;98630.72;;;-0.38;47.39
43741;BME280;29352;48.708;9.290;2024-01-10T13:11:42;98625.16;;;0.07;47.22
43741;BME280;29352;48.708;9.290;2024-01-10T13:14:08;98637.09;;;-0.52;47.14